Terminal Aerodrome Forecast
Issued by NWS Birmingham, AL

Home | Current Version | Previous Version | Text Only | Print | Product List | Glossary On
Versions: 1 2 3 4 5 6 7 8 9 10 11 12 13 14 15
108
FTUS44 KBMX 141753 CCA
TAFBHM
TAF COR
KBHM 141753Z 1418/1518 16009KT P6SM BKN080
     FM151500 17010KT P6SM OVC020=

USA.gov is the U.S. government's official web portal to all federal, state and local government web resources and services.